createdAt,value
2018-04-28T00:01:49.090Z,7.00
2018-04-28T00:04:17.458Z,6.90
2018-04-28T00:06:45.074Z,6.90
2018-04-28T00:09:12.675Z,7.10
2018-04-28T00:11:40.277Z,7.10
2018-04-28T00:14:07.896Z,7.10
2018-04-28T00:16:46.250Z,7.10
2018-04-28T00:19:13.854Z,7.10
2018-04-28T00:21:51.366Z,7.00
2018-04-28T00:24:18.990Z,6.90
2018-04-28T00:26:49.493Z,7.00
2018-04-28T00:29:26.916Z,7.00
2018-04-28T00:31:55.394Z,7.20
2018-04-28T00:34:23.782Z,7.00
2018-04-28T00:36:58.931Z,7.00
2018-04-28T00:39:26.530Z,7.10
2018-04-28T00:41:54.117Z,7.10
2018-04-28T00:44:21.971Z,7.10
2018-04-28T00:46:52.118Z,7.10
2018-04-28T00:49:29.658Z,7.10
2018-04-28T00:51:59.078Z,7.00
2018-04-28T00:54:46.491Z,7.10
2018-04-28T00:57:15.928Z,7.10
2018-04-28T00:59:45.285Z,7.10
2018-04-28T01:02:13.711Z,6.90
2018-04-28T01:04:43.002Z,6.90
2018-04-28T01:07:16.179Z,7.00
2018-04-28T01:09:43.774Z,7.00
2018-04-28T01:12:11.366Z,7.00
2018-04-28T01:14:44.809Z,7.10
2018-04-28T01:17:14.978Z,7.20
2018-04-28T01:19:46.108Z,7.20
2018-04-28T01:22:14.491Z,7.20
2018-04-28T01:24:48.038Z,7.10
2018-04-28T01:27:21.569Z,7.20
2018-04-28T01:30:19.722Z,7.20
2018-04-28T01:35:15.190Z,7.10
2018-04-28T01:37:47.517Z,7.10
2018-04-28T01:40:15.118Z,7.00
2018-04-28T01:42:53.378Z,7.00
2018-04-28T01:45:37.804Z,7.00
2018-04-28T01:48:11.246Z,7.00
2018-04-28T01:50:58.279Z,6.80
2018-04-28T01:53:29.349Z,6.70
2018-04-28T01:56:05.482Z,6.70
2018-04-28T01:58:38.978Z,6.70
2018-04-28T02:04:13.177Z,6.70
2018-04-28T02:06:41.698Z,6.70
2018-04-28T02:09:12.151Z,6.60
2018-04-28T02:11:46.318Z,6.70
2018-04-28T02:14:18.615Z,6.70
2018-04-28T02:16:50.054Z,6.80
2018-04-28T02:19:24.262Z,6.80
2018-04-28T02:22:03.594Z,6.80
2018-04-28T02:24:53.798Z,7.00
2018-04-28T02:27:25.842Z,7.00
2018-04-28T02:29:53.468Z,6.90
2018-04-28T02:32:22.688Z,7.00
2018-04-28T02:35:10.666Z,7.00
2018-04-28T02:37:44.241Z,7.00
2018-04-28T02:40:26.728Z,6.90
2018-04-28T02:42:57.887Z,7.00
2018-04-28T02:45:37.815Z,6.90
2018-04-28T02:48:12.255Z,7.10
2018-04-28T02:50:45.158Z,7.10
2018-04-28T02:53:21.499Z,7.10
2018-04-28T02:59:11.789Z,7.10
2018-04-28T03:01:43.721Z,7.10
2018-04-28T03:04:25.496Z,7.20
2018-04-28T03:07:14.870Z,7.10
2018-04-28T03:09:42.466Z,7.20
2018-04-28T03:12:10.067Z,7.10
2018-04-28T03:14:39.324Z,7.20
2018-04-28T03:17:13.166Z,7.20
2018-04-28T03:22:16.236Z,6.30
2018-04-28T03:24:55.673Z,6.30
2018-04-28T03:27:31.358Z,7.20
2018-04-28T03:30:12.586Z,7.20
2018-04-28T03:32:42.011Z,7.20
2018-04-28T03:35:14.059Z,7.10
2018-04-28T03:37:42.415Z,7.10
2018-04-28T03:40:17.777Z,7.10
2018-04-28T03:42:46.134Z,7.10
2018-04-28T03:45:13.730Z,7.10
2018-04-28T03:47:41.335Z,7.20
2018-04-28T03:50:16.418Z,7.20
2018-04-28T03:52:54.946Z,7.20
2018-04-28T03:55:23.290Z,7.20
2018-04-28T03:58:02.694Z,7.20
2018-04-28T04:00:41.962Z,7.20
2018-04-28T04:03:16.190Z,7.20
2018-04-28T04:08:46.090Z,7.30
2018-04-28T04:11:25.323Z,7.30
2018-04-28T04:14:00.413Z,7.30
2018-04-28T04:16:32.829Z,7.40
2018-04-28T04:19:17.219Z,7.30
2018-04-28T04:21:49.046Z,7.30
2018-04-28T04:24:24.594Z,7.30
2018-04-28T04:27:06.603Z,7.30
2018-04-28T04:29:44.810Z,7.30
2018-04-28T04:32:14.398Z,7.30
2018-04-28T04:35:06.569Z,7.40
2018-04-28T04:37:43.859Z,7.40
2018-04-28T04:40:19.894Z,7.40
2018-04-28T04:43:03.282Z,7.40
2018-04-28T04:45:50.274Z,7.50
2018-04-28T04:48:20.473Z,7.50
2018-04-28T04:51:05.345Z,7.50
2018-04-28T04:53:51.433Z,7.50
2018-04-28T04:56:47.209Z,7.50
2018-04-28T04:59:36.304Z,7.50
2018-04-28T05:02:15.652Z,7.60
2018-04-28T05:04:53.927Z,7.70
2018-04-28T05:07:33.200Z,7.70
2018-04-28T05:10:02.476Z,7.70
2018-04-28T05:15:51.691Z,7.70
2018-04-28T05:18:27.068Z,7.80
2018-04-28T05:21:15.034Z,7.90
2018-04-28T05:23:54.301Z,7.90
2018-04-28T05:26:43.522Z,8.00
2018-04-28T05:29:19.821Z,8.10
2018-04-28T05:35:12.418Z,8.20
2018-04-28T05:37:51.681Z,8.30
2018-04-28T05:40:28.865Z,8.40
2018-04-28T05:43:19.958Z,8.40
2018-04-28T05:46:00.284Z,8.40
2018-04-28T05:48:37.847Z,8.50
2018-04-28T05:51:26.012Z,8.50
2018-04-28T05:54:08.367Z,8.50
2018-04-28T06:00:06.618Z,8.50
2018-04-28T06:02:41.742Z,8.60
2018-04-28T06:08:19.173Z,8.60
2018-04-28T06:11:07.445Z,8.70
2018-04-28T06:13:48.662Z,8.80
2018-04-28T06:16:27.987Z,8.90
2018-04-28T06:21:56.276Z,9.10
2018-04-28T06:24:23.873Z,9.20
2018-04-28T06:26:52.244Z,9.40
2018-04-28T06:29:19.846Z,9.40
2018-04-28T06:31:47.481Z,9.50
2018-04-28T06:34:15.890Z,9.50
2018-04-28T06:36:43.561Z,9.50
2018-04-28T06:39:11.199Z,9.50
2018-04-28T06:41:38.794Z,9.60
2018-04-28T06:44:06.423Z,9.60
2018-04-28T06:46:34.152Z,9.50
2018-04-28T06:49:01.756Z,9.60
2018-04-28T06:51:29.431Z,9.60
2018-04-28T06:53:57.117Z,9.60
2018-04-28T06:56:24.752Z,9.60
2018-04-28T06:58:52.419Z,9.50
2018-04-28T07:01:20.025Z,9.60
2018-04-28T07:03:48.385Z,9.50
2018-04-28T07:06:15.986Z,9.50
2018-04-28T07:08:43.594Z,9.50
2018-04-28T07:11:11.271Z,9.50
2018-04-28T07:13:38.898Z,9.60
2018-04-28T07:16:06.702Z,9.60
2018-04-28T07:18:35.155Z,9.60
2018-04-28T07:21:02.861Z,9.60
2018-04-28T07:23:30.563Z,9.70
2018-04-28T07:25:58.170Z,9.70
2018-04-28T07:28:25.795Z,9.70
2018-04-28T07:30:53.422Z,9.80
2018-04-28T07:33:21.070Z,9.80
2018-04-28T07:35:49.490Z,9.70
2018-04-28T07:38:17.110Z,9.70
2018-04-28T07:40:44.782Z,9.70
2018-04-28T07:43:12.405Z,9.70
2018-04-28T07:45:40.094Z,9.80
2018-04-28T07:48:08.465Z,10.00
2018-04-28T07:50:36.181Z,10.00
2018-04-28T07:53:03.856Z,10.10
2018-04-28T07:55:31.458Z,10.20
2018-04-28T07:57:59.106Z,10.30
2018-04-28T08:00:27.603Z,10.50
2018-04-28T08:02:55.367Z,10.50
2018-04-28T08:05:22.986Z,10.60
2018-04-28T08:07:50.719Z,10.70
2018-04-28T08:10:18.422Z,10.80
2018-04-28T08:12:46.080Z,11.00
2018-04-28T08:15:13.752Z,11.10
2018-04-28T08:17:42.141Z,11.20
2018-04-28T08:20:09.741Z,11.20
2018-04-28T08:22:37.479Z,11.30
2018-04-28T08:25:05.875Z,11.30
2018-04-28T08:27:33.518Z,11.30
2018-04-28T08:30:01.159Z,11.50
2018-04-28T08:32:28.762Z,11.50
2018-04-28T08:34:56.366Z,11.70
2018-04-28T08:37:24.049Z,11.70
2018-04-28T08:39:51.609Z,11.80
2018-04-28T08:42:19.230Z,11.80
2018-04-28T08:44:46.881Z,11.80
2018-04-28T08:47:14.586Z,11.90
2018-04-28T08:49:43.022Z,12.00
2018-04-28T08:52:10.739Z,12.00
2018-04-28T08:54:39.111Z,12.60
2018-04-28T08:57:07.525Z,12.60
2018-04-28T08:59:46.942Z,12.60
2018-04-28T09:02:15.686Z,12.80
2018-04-28T09:04:43.308Z,12.70
2018-04-28T09:07:44.240Z,12.80
2018-04-28T09:10:12.982Z,12.90
2018-04-28T09:15:12.604Z,13.00
2018-04-28T09:17:40.294Z,13.00
2018-04-28T09:25:05.862Z,12.40
2018-04-28T09:27:33.458Z,12.40
2018-04-28T09:30:01.065Z,12.20
2018-04-28T09:32:29.422Z,12.10
2018-04-28T09:34:57.018Z,12.10
2018-04-28T09:37:24.630Z,12.10
2018-04-28T09:39:52.235Z,12.00
2018-04-28T09:42:19.840Z,11.90
2018-04-28T09:44:47.494Z,11.80
2018-04-28T09:47:15.117Z,11.50
2018-04-28T09:49:42.803Z,11.40
2018-04-28T09:52:10.413Z,11.30
2018-04-28T09:54:38.790Z,11.30
2018-04-28T09:57:06.434Z,11.30
2018-04-28T09:59:34.038Z,11.20
2018-04-28T10:02:07.219Z,11.20
2018-04-28T10:04:34.839Z,11.30
2018-04-28T10:07:02.476Z,11.20
2018-04-28T10:09:30.079Z,11.10
2018-04-28T10:11:57.790Z,11.10
2018-04-28T10:14:25.405Z,11.10
2018-04-28T10:16:53.018Z,11.00
2018-04-28T10:19:20.657Z,11.10
2018-04-28T10:21:48.266Z,11.20
2018-04-28T10:24:15.870Z,11.30
2018-04-28T10:26:44.261Z,11.80
2018-04-28T10:29:11.931Z,11.80
2018-04-28T10:31:39.548Z,12.10
2018-04-28T10:34:07.162Z,12.40
2018-04-28T10:36:34.770Z,12.80
2018-04-28T10:39:02.376Z,13.10
2018-04-28T10:41:30.026Z,13.30
2018-04-28T10:43:57.726Z,13.40
2018-04-28T10:46:25.342Z,13.70
2018-04-28T10:48:53.722Z,13.90
2018-04-28T10:51:21.326Z,13.90
2018-04-28T10:53:49.045Z,14.30
2018-04-28T10:56:16.653Z,14.50
2018-04-28T10:58:44.302Z,14.70
2018-04-28T11:01:11.954Z,14.90
2018-04-28T11:03:39.589Z,14.60
2018-04-28T11:06:07.195Z,14.40
2018-04-28T11:08:34.819Z,14.40
2018-04-28T11:11:02.439Z,14.20
2018-04-28T11:13:30.043Z,14.00
2018-04-28T11:15:57.643Z,14.00
2018-04-28T11:18:25.254Z,14.00
2018-04-28T11:20:52.892Z,14.00
2018-04-28T11:23:21.254Z,13.80
2018-04-28T11:25:48.896Z,13.80
2018-04-28T11:28:16.510Z,13.60
2018-04-28T11:30:44.105Z,13.40
2018-04-28T11:33:11.805Z,13.20
2018-04-28T11:35:39.408Z,13.10
2018-04-28T11:38:07.013Z,12.90
2018-04-28T11:40:34.637Z,12.60
2018-04-28T11:43:02.260Z,12.40
2018-04-28T11:45:30.623Z,12.50
2018-04-28T11:47:58.250Z,12.40
2018-04-28T11:50:25.849Z,12.50
2018-04-28T11:52:53.449Z,12.60
2018-04-28T11:55:21.055Z,12.70
2018-04-28T11:57:48.670Z,12.80
2018-04-28T12:00:16.274Z,13.00
2018-04-28T12:02:43.892Z,13.10
2018-04-28T12:05:11.531Z,13.30
2018-04-28T12:07:39.158Z,13.30
2018-04-28T12:10:06.891Z,13.40
2018-04-28T12:12:34.564Z,13.60
2018-04-28T12:15:02.148Z,13.50
2018-04-28T12:17:30.526Z,13.80
2018-04-28T12:19:58.130Z,13.80
2018-04-28T12:22:25.885Z,14.00
2018-04-28T12:24:54.631Z,14.60
2018-04-28T12:27:22.221Z,14.60
2018-04-28T12:29:50.613Z,14.80
2018-04-28T12:32:18.286Z,14.80
2018-04-28T12:34:45.892Z,15.10
2018-04-28T12:37:13.511Z,16.00
2018-04-28T12:39:41.209Z,17.20
2018-04-28T12:42:08.810Z,18.40
2018-04-28T12:44:36.425Z,22.10
2018-04-28T12:47:04.043Z,22.10
2018-04-28T12:49:32.774Z,24.90
2018-04-28T12:52:00.416Z,24.80
2018-04-28T12:54:29.165Z,23.60
2018-04-28T12:56:57.908Z,24.00
2018-04-28T12:59:25.502Z,24.00
2018-04-28T13:01:53.131Z,24.20
2018-04-28T13:04:20.726Z,22.30
2018-04-28T13:06:48.378Z,21.40
2018-04-28T13:09:15.986Z,20.50
2018-04-28T13:11:43.617Z,19.80
2018-04-28T13:14:11.278Z,19.40
2018-04-28T13:16:39.013Z,20.50
2018-04-28T13:19:06.586Z,19.40
2018-04-28T13:21:34.978Z,21.90
2018-04-28T13:24:02.681Z,21.80
2018-04-28T13:26:30.326Z,22.10
2018-04-28T13:28:57.926Z,22.50
2018-04-28T13:31:25.561Z,21.50
2018-04-28T13:33:53.161Z,20.50
2018-04-28T13:36:20.782Z,19.70
2018-04-28T13:38:48.390Z,20.30
2018-04-28T13:41:15.993Z,18.50
2018-04-28T13:43:43.593Z,18.20
2018-04-28T13:46:12.007Z,17.80
2018-04-28T13:48:39.750Z,17.80
2018-04-28T13:51:08.111Z,17.70
2018-04-28T13:53:36.513Z,17.70
2018-04-28T13:56:04.147Z,17.60
2018-04-28T13:58:32.602Z,17.80
2018-04-28T14:01:00.218Z,17.80
2018-04-28T14:03:27.820Z,17.80
2018-04-28T14:05:55.446Z,17.60
2018-04-28T14:08:23.082Z,17.40
2018-04-28T14:10:51.563Z,16.30
2018-04-28T14:13:19.983Z,16.00
2018-04-28T14:15:47.587Z,16.00
2018-04-28T14:18:15.198Z,15.60
2018-04-28T14:20:42.854Z,15.30
2018-04-28T14:23:10.474Z,15.40
2018-04-28T14:25:38.871Z,15.20
2018-04-28T14:28:07.270Z,14.90
2018-04-28T14:30:35.768Z,14.70
2018-04-28T14:33:03.530Z,14.70
2018-04-28T14:35:31.179Z,14.60
2018-04-28T14:37:58.819Z,14.20
2018-04-28T14:40:27.281Z,13.90
2018-04-28T14:42:55.648Z,13.80
2018-04-28T14:45:23.382Z,13.70
2018-04-28T14:47:51.039Z,13.80
2018-04-28T14:50:18.637Z,13.90
2018-04-28T14:52:46.336Z,13.80
2018-04-28T14:55:14.666Z,13.50
2018-04-28T14:57:42.273Z,13.40
2018-04-28T15:00:09.893Z,13.20
2018-04-28T15:02:37.503Z,13.20
2018-04-28T15:05:05.102Z,13.10
2018-04-28T15:07:32.739Z,13.00
2018-04-28T15:10:00.436Z,12.90
2018-04-28T15:12:28.036Z,12.70
2018-04-28T15:14:55.651Z,12.60
2018-04-28T15:17:23.269Z,12.80
2018-04-28T15:19:50.866Z,13.10
2018-04-28T15:22:18.484Z,13.30
2018-04-28T15:24:46.091Z,13.50
2018-04-28T15:27:13.698Z,13.60
2018-04-28T15:29:41.337Z,13.30
2018-04-28T15:32:09.701Z,13.20
2018-04-28T15:34:37.301Z,13.10
2018-04-28T15:37:04.937Z,13.00
2018-04-28T15:39:33.318Z,13.10
2018-04-28T15:42:00.922Z,13.10
2018-04-28T15:44:28.543Z,13.20
2018-04-28T15:46:56.146Z,13.30
2018-04-28T15:49:23.746Z,13.20
2018-04-28T15:51:52.145Z,13.20
2018-04-28T15:54:19.773Z,13.20
2018-04-28T15:56:47.373Z,13.10
2018-04-28T15:59:14.994Z,13.10
2018-04-28T16:01:42.604Z,13.20
2018-04-28T16:04:10.198Z,13.20
2018-04-28T16:06:37.839Z,13.20
2018-04-28T16:09:05.434Z,13.10
2018-04-28T16:11:33.028Z,13.10
2018-04-28T16:14:01.436Z,12.90
2018-04-28T16:16:29.035Z,12.80
2018-04-28T16:18:56.637Z,12.70
2018-04-28T16:21:24.274Z,12.70
2018-04-28T16:23:52.641Z,12.70
2018-04-28T16:26:20.242Z,12.70
2018-04-28T16:28:47.898Z,12.70
2018-04-28T16:31:15.490Z,12.50
2018-04-28T16:33:43.101Z,12.50
2018-04-28T16:36:10.720Z,12.30
2018-04-28T16:38:38.358Z,12.30
2018-04-28T16:41:05.955Z,12.30
2018-04-28T16:43:33.576Z,12.30
2018-04-28T16:46:01.178Z,12.10
2018-04-28T16:48:28.813Z,12.10
2018-04-28T16:50:56.493Z,12.00
2018-04-28T16:53:24.054Z,11.80
2018-04-28T16:55:51.658Z,11.70
2018-04-28T16:58:19.306Z,11.70
2018-04-28T17:00:47.675Z,11.50
2018-04-28T17:03:15.331Z,11.50
2018-04-28T17:05:42.950Z,11.50
2018-04-28T17:08:10.566Z,11.50
2018-04-28T17:10:38.933Z,11.40
2018-04-28T17:13:07.330Z,11.30
2018-04-28T17:15:34.967Z,11.30
2018-04-28T17:18:02.618Z,11.20
2018-04-28T17:20:30.330Z,11.10
2018-04-28T17:22:57.921Z,11.10
2018-04-28T17:25:25.517Z,11.10
2018-04-28T17:27:53.891Z,10.90
2018-04-28T17:30:22.258Z,10.80
2018-04-28T17:32:49.861Z,10.90
2018-04-28T17:35:17.518Z,10.90
2018-04-28T17:37:45.134Z,10.90
2018-04-28T17:40:12.754Z,10.80
2018-04-28T17:42:40.367Z,10.70
2018-04-28T17:45:07.981Z,10.60
2018-04-28T17:47:35.619Z,10.40
2018-04-28T17:50:03.230Z,10.20
2018-04-28T17:52:30.898Z,10.30
2018-04-28T17:54:59.627Z,10.00
2018-04-28T17:57:27.230Z,9.90
2018-04-28T17:59:54.850Z,10.00
2018-04-28T18:02:22.442Z,10.10
2018-04-28T18:04:50.047Z,10.10
2018-04-28T18:07:18.414Z,10.00
2018-04-28T18:09:46.090Z,10.00
2018-04-28T18:12:13.744Z,10.10
2018-04-28T18:14:42.146Z,10.10
2018-04-28T18:17:09.751Z,10.10
2018-04-28T18:19:38.186Z,10.10
2018-04-28T18:22:05.786Z,10.10
2018-04-28T18:24:33.425Z,10.20
2018-04-28T18:27:01.078Z,10.10
2018-04-28T18:29:28.683Z,10.00
2018-04-28T18:31:56.308Z,10.00
2018-04-28T18:34:23.930Z,9.90
2018-04-28T18:36:51.533Z,9.80
2018-04-28T18:39:19.174Z,9.80
2018-04-28T18:41:46.804Z,9.70
2018-04-28T18:44:15.198Z,9.80
2018-04-28T18:46:42.846Z,9.70
2018-04-28T18:49:10.507Z,9.80
2018-04-28T18:51:38.164Z,9.70
2018-04-28T18:54:05.754Z,9.80
2018-04-28T18:56:33.407Z,9.80
2018-04-28T18:59:01.014Z,9.60
2018-04-28T19:01:30.441Z,9.10
2018-04-28T19:03:58.083Z,9.10
2018-04-28T19:06:25.691Z,9.00
2018-04-28T19:08:54.098Z,8.90
2018-04-28T19:11:21.739Z,8.90
2018-04-28T19:13:49.334Z,9.10
2018-04-28T19:16:16.926Z,9.10
2018-04-28T19:18:44.568Z,9.20
2018-04-28T19:21:12.165Z,9.30
2018-04-28T19:23:39.770Z,9.10
2018-04-28T19:26:07.428Z,9.00
2018-04-28T19:28:35.023Z,9.10
2018-04-28T19:31:02.634Z,9.10
2018-04-28T19:33:30.240Z,9.20
2018-04-28T19:35:57.917Z,9.20
2018-04-28T19:38:25.594Z,9.30
2018-04-28T19:40:53.204Z,9.20
2018-04-28T19:43:20.854Z,9.20
2018-04-28T19:45:48.453Z,9.30
2018-04-28T19:48:16.073Z,9.30
2018-04-28T19:50:43.694Z,9.40
2018-04-28T19:53:12.054Z,9.30
2018-04-28T19:55:39.685Z,9.30
2018-04-28T19:58:07.346Z,9.20
2018-04-28T20:00:34.981Z,9.10
2018-04-28T20:03:02.611Z,9.00
2018-04-28T20:05:31.017Z,8.90
2018-04-28T20:07:58.613Z,8.90
2018-04-28T20:10:26.251Z,8.90
2018-04-28T20:12:53.983Z,8.80
2018-04-28T20:15:21.600Z,8.70
2018-04-28T20:17:49.228Z,8.70
2018-04-28T20:20:16.917Z,8.60
2018-04-28T20:22:56.244Z,8.60
2018-04-28T20:25:23.858Z,8.60
2018-04-28T20:27:52.217Z,8.50
2018-04-28T20:30:19.852Z,8.50
2018-04-28T20:32:47.455Z,8.60
2018-04-28T20:35:15.054Z,8.60
2018-04-28T20:37:42.709Z,8.60
2018-04-28T20:40:10.338Z,8.70
2018-04-28T20:42:38.817Z,8.70
2018-04-28T20:45:07.202Z,8.70
2018-04-28T20:47:34.914Z,8.60
2018-04-28T20:50:02.509Z,8.70
2018-04-28T20:52:30.883Z,8.80
2018-04-28T20:54:59.246Z,8.80
2018-04-28T20:57:26.896Z,8.80
2018-04-28T20:59:54.522Z,8.80
2018-04-28T21:02:22.127Z,8.80
2018-04-28T21:04:49.789Z,8.90
2018-04-28T21:07:17.397Z,8.80
2018-04-28T21:09:45.038Z,8.80
2018-04-28T21:12:13.398Z,8.80
2018-04-28T21:14:41.007Z,8.80
2018-04-28T21:17:08.606Z,8.90
2018-04-28T21:19:36.205Z,8.80
2018-04-28T21:22:03.870Z,8.90
2018-04-28T21:24:31.522Z,8.90
2018-04-28T21:26:59.099Z,8.90
2018-04-28T21:29:26.702Z,8.90
2018-04-28T21:31:54.296Z,8.90
2018-04-28T21:34:21.896Z,8.90
2018-04-28T21:36:49.490Z,8.90
2018-04-28T21:39:17.078Z,8.90
2018-04-28T21:41:45.507Z,8.80
2018-04-28T21:44:13.130Z,8.70
2018-04-28T21:46:40.746Z,8.60
2018-04-28T21:49:08.337Z,8.60
2018-04-28T21:51:35.967Z,8.50
2018-04-28T21:54:03.578Z,8.50
2018-04-28T21:56:31.169Z,8.50
2018-04-28T21:58:58.802Z,8.60
2018-04-28T22:01:26.386Z,8.60
2018-04-28T22:03:53.978Z,8.60
2018-04-28T22:06:21.587Z,8.60
2018-04-28T22:08:49.212Z,8.50
2018-04-28T22:11:17.570Z,8.50
2018-04-28T22:13:45.238Z,8.50
2018-04-28T22:16:12.834Z,8.40
